Time;durP1;ratioP1;P1;durP2;ratioP2;P2;SDS_P1;SDS_P2;PMS_P1;PMS_P2;Temp;Humidity;BMP_temperature;BMP_pressure;BME280_temperature;BME280_humidity;BME280_pressure;Samples;Min_cycle;Max_cycle;Signal;HPM_P1;HPM_P2
2022/08/11 00:00:12;;;;;;;4.33;3.58;;;;;;;17.82;79.84;101102.63;2811955;83;21033;-86
2022/08/11 00:04:17;;;;;;;6.53;5.05;;;;;;;17.80;79.77;101099.76;2749931;85;21024;-87
2022/08/11 00:08:28;;;;;;;8.60;6.15;;;;;;;17.83;80.08;101100.27;2769730;84;20981;-85
2022/08/11 00:12:30;;;;;;;8.83;6.58;;;;;;;17.82;79.63;101097.23;2788101;83;21055;-83
2022/08/11 00:16:32;;;;;;;10.58;7.70;;;;;;;17.88;79.57;101100.30;2817173;83;21540;-87
2022/08/11 00:20:38;;;;;;;11.18;7.70;;;;;;;17.92;79.45;101107.09;2766468;84;21570;-87
2022/08/11 00:24:40;;;;;;;8.15;6.03;;;;;;;17.99;79.26;101096.05;2785147;83;21109;-87
2022/08/11 00:28:42;;;;;;;7.80;5.95;;;;;;;18.07;78.97;101093.44;2789671;83;21661;-86
2022/08/11 00:32:57;;;;;;;6.33;5.35;;;;;;;18.10;78.67;101091.81;2824754;83;21000;-86
2022/08/11 00:37:18;;;;;;;7.90;4.42;;;;;;;18.11;78.63;101092.16;2827103;83;21013;-86
2022/08/11 00:41:34;;;;;;;10.05;5.03;;;;;;;18.10;78.78;101094.50;2820436;84;21068;-86
2022/08/11 00:46:03;;;;;;;6.10;5.28;;;;;;;18.09;78.42;101094.64;2832785;83;21032;-85
2022/08/11 00:50:25;;;;;;;5.92;5.22;;;;;;;17.97;78.46;101091.32;2808074;84;21001;-86
2022/08/11 00:54:50;;;;;;;8.58;5.12;;;;;;;17.86;78.42;101093.75;2718173;86;21575;-86
2022/08/11 00:59:25;;;;;;;10.18;6.62;;;;;;;17.76;78.60;101088.45;2723891;87;21620;-86
2022/08/11 01:04:12;;;;;;;6.30;5.65;;;;;;;17.72;78.83;101094.28;2702085;86;21048;-87
2022/08/11 01:08:32;;;;;;;;;;;;;;;17.70;79.33;101093.10;2745590;86;21057;-87
2022/08/11 01:13:00;;;;;;;6.70;5.35;;;;;;;17.64;79.58;101095.03;2724971;86;20140;-87
2022/08/11 01:17:35;;;;;;;9.40;6.35;;;;;;;17.54;79.28;101097.31;2735340;86;21071;-87
2022/08/11 01:22:13;;;;;;;7.72;5.87;;;;;;;17.48;79.40;101087.14;2722414;86;21060;-86
2022/08/11 01:27:07;;;;;;;8.13;4.67;;;;;;;17.44;79.24;101089.79;2721662;86;21552;-86
2022/08/11 01:31:14;;;;;;;10.25;5.97;;;;;;;17.33;79.17;101090.84;2751847;85;21098;-86
2022/08/11 01:35:49;;;;;;;9.43;5.30;;;;;;;17.23;78.99;101091.42;2726944;85;21071;-86
2022/08/11 01:40:25;;;;;;;13.03;6.95;;;;;;;17.13;79.43;101098.19;2749767;85;21084;-86
2022/08/11 01:45:07;;;;;;;9.55;6.60;;;;;;;17.06;79.81;101089.01;2710911;86;21068;-86
2022/08/11 01:49:38;;;;;;;9.73;6.85;;;;;;;17.01;80.39;101093.51;2726404;86;21143;-86
2022/08/11 01:54:07;;;;;;;7.90;6.20;;;;;;;16.94;80.46;101091.88;2768003;85;21072;-87
2022/08/11 01:58:32;;;;;;;6.65;5.70;;;;;;;16.88;81.10;101086.23;2710194;87;21683;-85
2022/08/11 02:02:53;;;;;;;7.28;5.78;;;;;;;16.81;81.06;101085.98;2732976;87;21091;-87
2022/08/11 02:07:18;;;;;;;8.08;6.20;;;;;;;16.76;81.21;101089.61;2698515;87;21192;-87
2022/08/11 02:11:29;;;;;;;9.23;6.83;;;;;;;16.72;80.98;101094.42;2693676;86;21418;-87
2022/08/11 02:15:48;;;;;;;7.95;6.08;;;;;;;16.60;81.05;101092.41;2710606;87;21009;-87
2022/08/11 02:24:44;;;;;;;80.03;17.42;;;;;;;16.42;81.63;101089.12;2818526;83;21562;-86
2022/08/11 02:29:26;;;;;;;16.65;8.53;;;;;;;16.37;81.92;101094.09;2800940;84;21052;-87
2022/08/11 02:33:33;;;;;;;8.58;6.20;;;;;;;16.35;82.04;101092.05;2819801;84;22150;-86
2022/08/11 02:37:51;;;;;;;6.30;5.67;;;;;;;16.18;83.67;101093.61;2817663;84;21527;-86
2022/08/11 02:42:26;;;;;;;13.43;6.60;;;;;;;16.07;83.11;101089.75;2822876;83;21087;-86
2022/08/11 02:46:42;;;;;;;7.20;5.47;;;;;;;16.03;83.26;101098.58;2809395;84;21044;-87
2022/08/11 02:51:07;;;;;;;8.10;5.67;;;;;;;16.00;83.66;101097.52;2743293;86;21032;-87
2022/08/11 02:55:19;;;;;;;7.72;6.85;;;;;;;15.96;83.62;101099.62;2724810;85;21130;-85
2022/08/11 02:59:58;;;;;;;10.35;6.00;;;;;;;15.92;84.49;101101.41;2662203;86;21054;-87
2022/08/11 03:04:14;;;;;;;9.43;6.47;;;;;;;15.93;84.54;101097.23;2689277;88;21100;-89
2022/08/11 03:08:54;;;;;;;8.65;6.22;;;;;;;15.93;83.95;101098.58;2686702;88;21067;-88
2022/08/11 03:18:04;;;;;;;6.62;5.30;;;;;;;15.90;83.41;101095.31;2657746;88;21059;-88
2022/08/11 03:22:54;;;;;;;7.75;6.17;;;;;;;15.87;83.30;101097.77;2639388;88;21099;-89
2022/08/11 03:27:04;;;;;;;18.80;5.58;;;;;;;15.85;83.06;101097.91;2679275;87;21782;-87
2022/08/11 03:31:25;;;;;;;6.22;5.55;;;;;;;15.88;83.01;101110.67;2672865;88;21044;-87
2022/08/11 03:35:31;;;;;;;6.65;5.15;;;;;;;15.87;83.18;101108.98;2661905;88;21090;-86
2022/08/11 03:39:46;;;;;;;7.30;6.15;;;;;;;15.71;85.20;101114.40;2667208;88;21633;-84
2022/08/11 03:44:21;;;;;;;6.20;5.60;;;;;;;15.31;87.42;101107.27;2654837;88;21087;-85
2022/08/11 03:48:44;;;;;;;8.90;6.05;;;;;;;15.28;87.38;101106.55;2609361;89;21098;-86
2022/08/11 03:53:03;;;;;;;11.05;6.25;;;;;;;15.35;87.25;101102.02;2722676;85;21040;-87
2022/08/11 03:57:36;;;;;;;6.58;5.65;;;;;;;15.47;86.84;101106.77;2785460;84;21076;-87
2022/08/11 04:02:05;;;;;;;5.65;4.72;;;;;;;15.55;86.67;101094.36;2808335;84;21061;-90
2022/08/11 04:06:18;;;;;;;7.15;5.45;;;;;;;15.67;86.48;101099.10;2816829;83;21068;-88
2022/08/11 04:10:48;;;;;;;6.08;4.53;;;;;;;15.81;86.37;101097.84;2741777;85;21040;-85
2022/08/11 04:20:38;;;;;;;16.77;6.92;;;;;;;16.26;88.27;101102.30;2766268;85;21120;-88
2022/08/11 04:25:21;;;;;;;18.30;6.97;;;;;;;17.43;97.30;101092.13;2798600;83;21012;-89
2022/08/11 04:30:04;;;;;;;14.68;7.25;;;;;;;18.80;93.35;101100.00;2788556;83;20994;-84
2022/08/11 04:34:27;;;;;;;6.40;4.97;;;;;;;19.93;85.15;101091.30;2813110;84;21096;-88
2022/08/11 04:39:10;;;;;;;13.90;5.55;;;;;;;21.01;77.74;101089.78;2710051;85;21496;-86
2022/08/11 04:43:53;;;;;;;8.30;5.15;;;;;;;21.81;72.62;101089.20;2814482;84;20988;-88
2022/08/11 05:02:24;;;;;;;8.70;5.35;;;;;;;23.46;64.44;101091.20;2695494;87;21066;-84
2022/08/11 05:07:06;;;;;;;24.30;5.70;;;;;;;23.81;63.44;101089.49;2675776;88;21672;-90
2022/08/11 05:11:44;;;;;;;5.92;4.72;;;;;;;23.68;63.28;101088.84;2665940;88;21078;-87
2022/08/11 05:56:37;;;;;;;7.03;5.45;;;;;;;25.45;58.19;101110.22;2738760;85;21592;-89
2022/08/11 06:00:46;;;;;;;7.62;6.55;;;;;;;25.72;57.41;101121.20;2759238;85;21586;-89
2022/08/11 06:04:57;;;;;;;8.43;6.72;;;;;;;25.95;57.48;101114.02;2828787;83;21043;-90
2022/08/11 06:08:59;;;;;;;6.00;5.20;;;;;;;26.07;57.18;101121.59;2776647;85;21610;-90
2022/08/11 06:13:03;;;;;;;8.60;4.83;;;;;;;26.18;56.97;101122.88;2810658;84;21528;-89
2022/08/11 06:17:05;;;;;;;9.40;5.40;;;;;;;26.52;56.63;101120.94;2746658;86;21028;-85
2022/08/11 06:21:09;;;;;;;9.35;5.92;;;;;;;26.95;55.69;101127.81;2774227;85;21083;-88
2022/08/11 06:25:11;;;;;;;8.90;5.35;;;;;;;27.17;54.80;101121.55;2807269;82;21063;-86
2022/08/11 06:29:17;;;;;;;5.92;4.47;;;;;;;27.47;55.37;101117.42;2805604;84;21586;-88
2022/08/11 06:33:35;;;;;;;7.42;5.33;;;;;;;27.54;54.41;101131.08;2765633;84;21051;-90
2022/08/11 06:38:10;;;;;;;6.00;5.10;;;;;;;27.68;54.18;101128.55;2804312;83;21023;-88
2022/08/11 06:42:41;;;;;;;3.45;2.85;;;;;;;27.60;53.78;101127.46;2809996;84;21366;-90
2022/08/11 06:46:47;;;;;;;5.08;3.65;;;;;;;27.52;52.73;101121.72;2804457;84;21048;-89
2022/08/11 06:51:11;;;;;;;5.90;3.50;;;;;;;27.70;53.75;101119.61;2783049;85;21043;-89
2022/08/11 07:04:08;;;;;;;3.47;3.12;;;;;;;28.91;51.20;101099.44;2765212;85;21039;-88
2022/08/11 07:28:53;;;;;;;4.33;2.85;;;;;;;28.45;50.06;101089.80;2750167;85;21084;-89
2022/08/11 07:30:39;;;;;;;4.22;2.10;;;;;;;28.52;47.69;101067.33;2774648;85;21048;-87
2022/08/11 07:34:46;;;;;;;2.77;2.52;;;;;;;28.52;47.69;101067.33;2798425;85;21537;-88
2022/08/11 07:38:51;;;;;;;3.67;1.85;;;;;;;28.90;47.19;101090.93;2780247;84;21086;-90
2022/08/11 07:42:55;;;;;;;3.92;1.95;;;;;;;28.73;45.96;101090.66;2710274;86;22223;-88
2022/08/11 07:55:42;;;;;;;2.13;1.70;;;;;;;29.27;45.02;101091.92;2792788;83;21055;-88
2022/08/11 08:21:28;;;;;;;2.17;1.40;;;;;;;29.02;45.29;101075.92;2723414;85;21523;-89
2022/08/11 08:25:40;;;;;;;2.20;1.77;;;;;;;28.67;46.18;101045.05;2757014;85;21079;-86
2022/08/11 08:34:03;;;;;;;2.30;1.70;;;;;;;28.18;47.51;101055.88;2757721;85;21001;-87
2022/08/11 08:38:05;;;;;;;4.53;1.50;;;;;;;28.19;47.29;101057.55;2744554;84;21127;-89
2022/08/11 08:42:10;;;;;;;3.25;1.27;;;;;;;28.19;48.38;101068.48;2731376;85;21037;-88
2022/08/11 08:46:13;;;;;;;1.35;1.07;;;;;;;28.01;47.51;101065.16;2745529;84;21083;-88
2022/08/11 08:50:21;;;;;;;2.85;1.20;;;;;;;27.78;46.56;101059.75;2749933;85;21092;-86
2022/08/11 08:54:33;;;;;;;3.83;1.25;;;;;;;27.87;47.00;101057.57;2745154;85;20996;-90
2022/08/11 08:58:37;;;;;;;1.42;0.95;;;;;;;27.93;46.66;101063.54;2747507;85;21162;-90
2022/08/11 09:02:39;;;;;;;2.52;1.55;;;;;;;27.77;46.82;101057.55;2735944;86;21090;-89
2022/08/11 09:06:42;;;;;;;1.57;1.30;;;;;;;27.79;47.15;101052.70;2712160;86;21016;-88
2022/08/11 09:11:48;;;;;;;2.80;1.45;;;;;;;27.92;47.15;101044.09;2704044;86;21081;-89
2022/08/11 09:14:59;;;;;;;1.52;1.20;;;;;;;27.88;46.03;101049.68;2722530;86;21452;-85
2022/08/11 09:19:02;;;;;;;9.70;2.27;;;;;;;27.83;46.68;101038.58;2741519;85;21082;-90
2022/08/11 09:27:27;;;;;;;3.72;1.62;;;;;;;27.28;47.69;101046.81;2717900;85;21093;-88
2022/08/11 09:31:32;;;;;;;4.28;1.47;;;;;;;27.11;46.98;101047.31;2760278;85;21028;-88
2022/08/11 09:35:38;;;;;;;4.42;1.98;;;;;;;27.20;47.37;101043.29;2734991;85;21055;-89
2022/08/11 09:48:25;;;;;;;3.40;1.77;;;;;;;27.47;47.48;101046.39;2708516;85;21028;-90
2022/08/11 09:52:26;;;;;;;;;;;;;;;27.59;46.87;101043.82;2756279;85;21041;-85
2022/08/11 10:00:50;;;;;;;4.60;1.87;;;;;;;28.17;46.48;101030.96;2739805;84;21893;-90
2022/08/11 10:07:00;;;;;;;4.33;1.67;;;;;;;28.34;45.89;101023.84;2830448;83;21059;-90
2022/08/11 10:08:59;;;;;;;1.85;1.10;;;;;;;28.55;45.81;101019.50;2829846;84;21020;-90
2022/08/11 10:13:06;;;;;;;3.98;1.95;;;;;;;28.41;45.54;101021.55;2832918;84;21118;-90
2022/08/11 10:17:11;;;;;;;1.00;0.93;;;;;;;28.02;46.20;101017.62;2828435;83;22205;-89
2022/08/11 10:21:29;;;;;;;3.90;1.72;;;;;;;27.56;46.71;101014.21;2828121;83;21081;-89
2022/08/11 10:34:15;;;;;;;3.13;1.40;;;;;;;28.13;43.25;100990.06;2840465;83;21020;-89
2022/08/11 10:38:18;;;;;;;1.20;1.07;;;;;;;28.34;43.81;100987.42;2808659;84;21027;-88
2022/08/11 10:51:13;;;;;;;2.02;1.30;;;;;;;28.56;43.35;100987.81;2775166;84;20985;-89
2022/08/11 10:59:36;;;;;;;3.60;1.35;;;;;;;28.51;42.70;100982.20;2822970;83;21414;-89
2022/08/11 11:03:37;;;;;;;3.60;2.40;;;;;;;28.18;43.65;100982.86;2849690;82;21006;-90
2022/08/11 11:07:53;;;;;;;3.02;1.98;;;;;;;27.93;43.68;100973.33;2823585;83;21007;-89
2022/08/11 11:21:13;;;;;;;3.00;1.85;;;;;;;27.90;43.73;100965.55;2732522;86;21638;-89
2022/08/11 11:25:26;;;;;;;6.15;1.60;;;;;;;27.81;44.47;100955.47;2734626;86;21679;-89
2022/08/11 11:29:42;;;;;;;2.20;1.70;;;;;;;27.62;44.64;100958.67;2739149;86;21062;-89
2022/08/11 11:34:12;;;;;;;1.72;1.05;;;;;;;27.41;46.01;100959.33;2738957;86;21094;-88
2022/08/11 11:38:13;;;;;;;1.70;1.47;;;;;;;27.31;45.02;100951.63;2733249;85;21148;-90
2022/08/11 11:42:17;;;;;;;3.70;1.50;;;;;;;27.28;44.96;100949.86;2734080;86;21085;-90
2022/08/11 11:46:19;;;;;;;1.55;1.42;;;;;;;27.40;44.61;100941.27;2714214;85;21035;-88
2022/08/11 11:50:28;;;;;;;1.80;0.95;;;;;;;27.58;43.74;100939.69;2729710;86;21084;-90
2022/08/11 11:54:35;;;;;;;3.40;1.20;;;;;;;27.78;43.52;100935.39;2828082;83;21059;-89
2022/08/11 12:03:02;;;;;;;1.32;1.22;;;;;;;28.22;43.96;100932.66;2803449;84;21068;-88
2022/08/11 12:15:51;;;;;;;3.00;0.98;;;;;;;28.55;44.12;100919.11;2827445;84;21075;-88
2022/08/11 12:19:53;;;;;;;3.95;0.78;;;;;;;28.73;41.72;100914.66;2821064;84;21024;-89
2022/08/11 12:28:23;;;;;;;2.52;0.88;;;;;;;28.47;41.37;100902.98;2834069;83;21027;-89
2022/08/11 12:32:32;;;;;;;0.60;0.50;;;;;;;28.52;40.73;100907.26;2785015;84;21027;-89
2022/08/11 12:36:55;;;;;;;0.95;0.85;;;;;;;28.70;39.72;100863.95;2829164;84;21032;-88
2022/08/11 12:45:28;;;;;;;1.55;0.65;;;;;;;29.01;40.48;100879.84;2806855;84;21000;-89
2022/08/11 12:54:02;;;;;;;1.80;0.75;;;;;;;29.09;39.21;100873.20;2809750;84;20996;-85
2022/08/11 12:58:15;;;;;;;0.75;0.60;;;;;;;29.11;38.74;100864.20;2771035;85;21150;-88
2022/08/11 13:06:43;;;;;;;2.75;1.05;;;;;;;29.36;39.47;100858.48;2720204;86;21603;-88
2022/08/11 13:15:08;;;;;;;47.33;8.85;;;;;;;28.68;39.33;100862.50;2756770;85;21029;-88
2022/08/11 13:19:10;;;;;;;1.92;0.53;;;;;;;28.31;39.29;100857.97;2719291;85;21072;-89
2022/08/11 13:23:12;;;;;;;1.27;0.90;;;;;;;28.21;39.77;100847.58;2741433;85;21052;-88
2022/08/11 13:27:17;;;;;;;0.80;0.80;;;;;;;28.43;37.62;100841.08;2759940;85;21067;-87
2022/08/11 13:31:19;;;;;;;1.40;0.62;;;;;;;28.43;37.62;100841.08;2745378;85;21070;-88
2022/08/11 13:35:22;;;;;;;2.08;0.50;;;;;;;28.37;37.23;100799.59;2745462;85;21021;-88
2022/08/11 13:39:28;;;;;;;2.95;0.88;;;;;;;28.53;37.25;100799.48;2747495;85;31103;-88
2022/08/11 13:43:29;;;;;;;3.10;0.97;;;;;;;28.84;36.96;100814.52;2772048;84;21078;-88
2022/08/11 13:47:32;;;;;;;1.07;0.68;;;;;;;28.96;37.34;100806.31;2778255;84;21059;-86
2022/08/11 13:51:37;;;;;;;1.02;0.60;;;;;;;28.99;37.88;100806.69;2705667;85;21026;-88
2022/08/11 13:55:40;;;;;;;72.95;9.48;;;;;;;29.00;37.17;100812.98;2774551;84;21013;-88
2022/08/11 13:59:42;;;;;;;13.93;1.65;;;;;;;29.07;38.29;100797.27;2720084;85;21036;-90
2022/08/11 14:03:46;;;;;;;9.50;1.82;;;;;;;28.97;37.28;100780.60;2698903;84;20995;-91
2022/08/11 14:07:55;;;;;;;1.25;0.50;;;;;;;29.21;39.03;100792.41;2721423;86;21064;-91
2022/08/11 14:16:32;;;;;;;1.05;0.88;;;;;;;29.31;36.82;100785.77;2797968;85;21009;-90
2022/08/11 14:24:58;;;;;;;31.83;4.37;;;;;;;29.26;36.71;100782.08;2789175;85;21024;-89
2022/08/11 14:29:17;;;;;;;1.85;0.57;;;;;;;29.38;37.67;100774.70;2772921;85;21053;-90
2022/08/11 14:33:19;;;;;;;1.20;0.50;;;;;;;29.39;36.90;100780.47;2773220;85;21056;-88
2022/08/11 14:37:24;;;;;;;0.90;0.60;;;;;;;29.36;36.75;100770.81;2771290;85;21062;-90
2022/08/11 14:50:13;;;;;;;1.10;0.93;;;;;;;29.34;36.43;100769.41;2773411;85;21023;-88
2022/08/11 14:58:38;;;;;;;0.95;0.62;;;;;;;29.59;38.79;100762.84;2782005;84;21036;-87
2022/08/11 15:07:00;;;;;;;3.58;1.37;;;;;;;29.56;37.40;100753.18;2833198;83;21706;-91
2022/08/11 15:12:07;;;;;;;1.20;0.72;;;;;;;29.49;37.44;100754.71;2839526;81;21004;-83
2022/08/11 15:19:30;;;;;;;2.52;0.70;;;;;;;29.40;38.17;100751.18;2799180;83;21031;-92
2022/08/11 15:49:33;;;;;;;6.33;1.50;;;;;;;28.91;39.15;100746.78;2820032;84;21103;-90
2022/08/11 15:53:48;;;;;;;1.25;0.70;;;;;;;28.88;38.66;100748.08;2828321;83;21075;-90
2022/08/11 16:06:49;;;;;;;2.37;1.07;;;;;;;28.45;40.04;100739.61;2818637;84;21040;-91
2022/08/11 16:10:54;;;;;;;1.62;0.75;;;;;;;28.31;40.67;100739.84;2825371;84;21040;-90
2022/08/11 16:19:22;;;;;;;1.10;0.68;;;;;;;28.26;40.84;100742.41;2802247;84;20985;-89
2022/08/11 16:23:27;;;;;;;2.45;0.90;;;;;;;28.21;40.74;100740.92;2818599;84;21021;-88
2022/08/11 16:27:32;;;;;;;5.35;0.98;;;;;;;28.11;40.30;100746.91;2828813;83;21039;-90
2022/08/11 16:31:37;;;;;;;1.17;0.70;;;;;;;28.08;40.72;100746.02;2827551;81;21063;-90
2022/08/11 16:40:00;;;;;;;0.80;0.78;;;;;;;27.98;41.14;100739.73;2750903;85;21111;-90
2022/08/11 16:48:26;;;;;;;1.80;0.93;;;;;;;27.61;40.07;100742.52;2799826;84;21063;-90
2022/08/11 16:52:27;;;;;;;1.60;0.85;;;;;;;27.61;40.07;100742.52;2797274;82;21043;-90
2022/08/11 16:56:50;;;;;;;1.17;0.93;;;;;;;27.40;41.50;100748.71;2761456;85;21066;-92
2022/08/11 17:00:51;;;;;;;6.72;1.32;;;;;;;27.40;41.50;100748.71;2830833;83;21071;-89
2022/08/11 17:13:48;;;;;;;1.70;1.00;;;;;;;26.78;44.47;100742.67;2821113;83;21034;-88
2022/08/11 17:17:50;;;;;;;4.17;0.88;;;;;;;26.59;45.24;100745.33;2849463;83;21039;-88
2022/08/11 17:26:52;;;;;;;4.53;1.20;;;;;;;26.37;45.78;100733.94;2830126;83;21031;-89
2022/08/11 17:39:07;;;;;;;2.85;1.27;;;;;;;26.02;46.89;100735.17;2823183;83;22698;-89
2022/08/11 17:59:51;;;;;;;2.47;1.90;;;;;;;25.49;47.96;100738.42;2826234;82;20995;-87
2022/08/11 18:00:17;;;;;;;3.60;3.12;;;;;;;25.36;48.14;100746.08;2790665;82;21071;-88
2022/08/11 18:04:21;;;;;;;5.12;2.87;;;;;;;25.26;48.24;100743.48;2818471;83;21082;-88
